Time;durP1;ratioP1;P1;durP2;ratioP2;P2;SDS_P1;SDS_P2;PMS_P1;PMS_P2;Temp;Humidity;BMP_temperature;BMP_pressure;BME280_temperature;BME280_humidity;BME280_pressure;Samples;Min_cycle;Max_cycle;Signal;HPM_P1;HPM_P2
2023/06/30 00:02:10;;;;;;;5.10;2.40;;;;;;;;;;5020747;28;20068;-61
2023/06/30 00:04:36;;;;;;;4.90;2.10;;;;;;;;;;5025862;28;20039;-61
2023/06/30 00:07:02;;;;;;;5.50;2.50;;;;;;;;;;5021469;28;20049;-61
2023/06/30 00:09:28;;;;;;;4.43;2.85;;;;;;;;;;5029652;28;20049;-61
2023/06/30 00:11:55;;;;;;;6.18;2.53;;;;;;;;;;5027050;28;20098;-60
2023/06/30 00:14:22;;;;;;;4.88;2.30;;;;;;;;;;5028330;28;20080;-61
2023/06/30 00:16:49;;;;;;;7.68;2.95;;;;;;;;;;5027446;28;20060;-61
2023/06/30 00:19:15;;;;;;;6.28;2.58;;;;;;;;;;5023953;28;20041;-61
2023/06/30 00:21:41;;;;;;;5.30;2.40;;;;;;;;;;5024555;28;20045;-61
2023/06/30 00:24:12;;;;;;;5.97;2.75;;;;;;;;;;5023188;28;20368;-60
2023/06/30 00:26:38;;;;;;;4.25;2.20;;;;;;;;;;5026955;28;20046;-61
2023/06/30 00:29:05;;;;;;;15.20;2.97;;;;;;;;;;5030266;28;20150;-61
2023/06/30 00:31:31;;;;;;;6.60;2.28;;;;;;;;;;5024045;28;20038;-61
2023/06/30 00:33:57;;;;;;;8.23;2.10;;;;;;;;;;5030573;28;20069;-61
2023/06/30 00:36:24;;;;;;;3.75;2.40;;;;;;;;;;5017877;28;20095;-61
2023/06/30 00:38:54;;;;;;;4.13;2.33;;;;;;;;;;5025386;28;20042;-60
2023/06/30 00:41:21;;;;;;;4.65;2.60;;;;;;;;;;5030406;28;20107;-60
2023/06/30 00:43:47;;;;;;;4.45;2.47;;;;;;;;;;5029976;28;20103;-60
2023/06/30 00:46:15;;;;;;;9.05;2.42;;;17.90;99.90;;;;;;5025932;28;20600;-60
2023/06/30 00:48:41;;;;;;;3.92;2.15;;;17.00;99.90;;;;;;5031123;28;20461;-60
2023/06/30 00:51:08;;;;;;;7.55;2.58;;;16.90;99.90;;;;;;5028955;28;20053;-60
2023/06/30 00:53:34;;;;;;;4.70;2.22;;;16.90;99.90;;;;;;5029603;28;20037;-60
2023/06/30 00:56:00;;;;;;;5.18;2.22;;;16.80;99.90;;;;;;5026397;28;20049;-60
2023/06/30 00:58:26;;;;;;;6.70;2.47;;;16.80;99.90;;;;;;5024698;28;20479;-61
2023/06/30 01:00:55;;;;;;;7.18;2.50;;;16.80;99.90;;;;;;5028945;28;20112;-60
2023/06/30 01:03:26;;;;;;;5.05;2.70;;;16.80;99.90;;;;;;5027925;28;20057;-61
2023/06/30 01:05:52;;;;;;;6.25;2.20;;;;;;;;;;5027258;28;20717;-61
2023/06/30 01:08:30;;;;;;;5.03;2.60;;;;;;;;;;5027459;28;20050;-61
2023/06/30 01:10:56;;;;;;;4.40;2.20;;;;;;;;;;5041953;28;20130;-61
2023/06/30 01:13:23;;;;;;;4.50;2.75;;;;;;;;;;5032419;28;20044;-61
2023/06/30 01:15:50;;;;;;;5.30;2.17;;;;;;;;;;5026019;28;20034;-60
2023/06/30 01:18:19;;;;;;;4.43;2.40;;;;;;;;;;5030285;28;20081;-61
2023/06/30 01:20:46;;;;;;;4.35;2.20;;;;;;;;;;5025636;28;20046;-61
2023/06/30 01:23:15;;;;;;;3.47;2.45;;;;;;;;;;5045827;28;20029;-62
2023/06/30 01:25:41;;;;;;;4.95;1.98;;;;;;;;;;5023402;28;20065;-61
2023/06/30 01:28:08;;;;;;;6.43;2.38;;;;;;;;;;5029879;28;20045;-61
2023/06/30 01:30:34;;;;;;;6.10;2.60;;;;;;;;;;5033650;28;20037;-60
2023/06/30 01:33:01;;;;;;;4.95;2.88;;;;;;;;;;5033983;28;20041;-60
2023/06/30 01:35:27;;;;;;;4.72;2.03;;;;;;;;;;5027819;28;20084;-61
2023/06/30 01:37:54;;;;;;;6.18;3.00;;;;;;;;;;5042553;28;20038;-60
2023/06/30 01:40:21;;;;;;;5.82;2.35;;;;;;;;;;5031231;28;20061;-60
2023/06/30 01:42:48;;;;;;;5.20;2.60;;;;;;;;;;5031557;28;20356;-60
2023/06/30 01:45:14;;;;;;;9.13;2.55;;;;;;;;;;5028096;28;20464;-60
2023/06/30 01:47:40;;;;;;;4.95;2.45;;;;;;;;;;5026937;28;20049;-60
2023/06/30 01:50:07;;;;;;;8.93;2.33;;;;;;;;;;5021889;28;20041;-60
2023/06/30 01:52:33;;;;;;;5.05;2.55;;;16.70;99.90;;;;;;5023493;28;20082;-61
2023/06/30 01:54:58;;;;;;;3.67;2.08;;;16.40;99.90;;;;;;5029006;28;20098;-60
2023/06/30 01:57:24;;;;;;;5.63;2.35;;;16.30;99.90;;;;;;5030634;28;20052;-60
2023/06/30 01:59:50;;;;;;;6.38;2.65;;;16.30;99.90;;;;;;5029731;28;20583;-60
2023/06/30 02:02:16;;;;;;;4.28;2.40;;;;;;;;;;5026225;28;20107;-60
2023/06/30 02:04:42;;;;;;;4.80;2.08;;;;;;;;;;5028150;28;20045;-61
2023/06/30 02:07:08;;;;;;;5.90;2.88;;;16.30;99.90;;;;;;5022790;28;20166;-60
2023/06/30 02:09:34;;;;;;;6.38;2.28;;;16.20;99.90;;;;;;5027240;28;20077;-60
2023/06/30 02:12:00;;;;;;;5.05;2.50;;;16.20;99.90;;;;;;5024790;28;20033;-60
2023/06/30 02:14:25;;;;;;;6.35;2.85;;;16.10;99.90;;;;;;5025355;28;20502;-60
2023/06/30 02:16:51;;;;;;;4.30;2.20;;;;;;;;;;5026481;28;20538;-60
2023/06/30 02:19:17;;;;;;;4.88;2.35;;;;;;;;;;5031207;28;20077;-61
2023/06/30 02:21:44;;;;;;;9.45;2.55;;;;;;;;;;5025847;28;20061;-61
2023/06/30 02:24:11;;;;;;;4.55;2.78;;;;;;;;;;5031808;28;20399;-60
2023/06/30 02:26:37;;;;;;;5.55;2.65;;;;;;;;;;5026401;28;20152;-60
2023/06/30 02:29:03;;;;;;;8.20;2.70;;;;;;;;;;5029111;28;20145;-61
2023/06/30 02:31:29;;;;;;;3.75;2.42;;;;;;;;;;5027854;28;20069;-61
2023/06/30 02:33:56;;;;;;;4.22;2.22;;;;;;;;;;5029324;28;20144;-60
2023/06/30 02:36:22;;;;;;;5.07;2.22;;;;;;;;;;5028551;28;20092;-60
2023/06/30 02:38:48;;;;;;;7.03;2.60;;;;;;;;;;5026051;28;20072;-61
2023/06/30 02:41:14;;;;;;;5.43;3.08;;;;;;;;;;5027104;28;20041;-61
2023/06/30 02:43:42;;;;;;;4.13;2.28;;;;;;;;;;5024835;28;20036;-61
2023/06/30 02:46:08;;;;;;;5.53;2.20;;;;;;;;;;5031634;28;20095;-61
2023/06/30 02:48:34;;;;;;;3.83;2.30;;;;;;;;;;5026074;28;20034;-61
2023/06/30 02:51:00;;;;;;;5.38;2.50;;;;;;;;;;5028780;28;20136;-61
2023/06/30 02:53:27;;;;;;;6.30;2.45;;;;;;;;;;5031309;28;20398;-61
2023/06/30 02:55:53;;;;;;;5.72;2.63;;;;;;;;;;5028539;28;20494;-60
2023/06/30 02:58:19;;;;;;;5.00;2.25;;;;;;;;;;5019435;28;20092;-61
2023/06/30 03:00:45;;;;;;;4.18;2.17;;;;;;;;;;5027800;28;20045;-61
2023/06/30 03:03:12;;;;;;;5.22;2.33;;;;;;;;;;5026681;28;20121;-62
2023/06/30 03:05:38;;;;;;;6.07;2.83;;;;;;;;;;5043470;28;20037;-61
2023/06/30 03:08:04;;;;;;;7.47;2.83;;;;;;;;;;5024739;28;20199;-61
2023/06/30 03:10:30;;;;;;;4.63;2.30;;;;;;;;;;5023590;28;20440;-61
2023/06/30 03:12:56;;;;;;;6.22;2.70;;;;;;;;;;5038305;28;20510;-61
2023/06/30 03:15:23;;;;;;;8.07;3.13;;;;;;;;;;5027090;28;20065;-61
2023/06/30 03:17:49;;;;;;;4.15;2.40;;;;;;;;;;5038377;28;20116;-61
2023/06/30 03:20:15;;;;;;;6.80;2.42;;;;;;;;;;5029627;28;20317;-61
2023/06/30 03:22:42;;;;;;;7.57;2.55;;;;;;;;;;5025826;28;20103;-61
2023/06/30 03:25:09;;;;;;;7.82;2.85;;;;;;;;;;5028818;28;20493;-60
2023/06/30 03:27:35;;;;;;;4.82;2.55;;;;;;;;;;5006710;28;20079;-61
2023/06/30 03:30:05;;;;;;;3.58;2.10;;;;;;;;;;5031494;28;20094;-61
2023/06/30 03:32:31;;;;;;;3.50;2.17;;;;;;;;;;5022558;28;20031;-61
2023/06/30 03:34:57;;;;;;;3.38;2.05;;;;;;;;;;5017951;28;20037;-61
2023/06/30 03:37:23;;;;;;;4.25;2.30;;;;;;;;;;5021075;28;20432;-61
2023/06/30 03:39:49;;;;;;;7.40;3.03;;;;;;;;;;5022511;28;20451;-61
2023/06/30 03:42:15;;;;;;;4.55;2.28;;;;;;;;;;5023552;28;20058;-61
2023/06/30 03:44:42;;;;;;;4.40;2.40;;;;;;;;;;5029818;28;20041;-60
2023/06/30 03:47:08;;;;;;;3.35;2.05;;;;;;;;;;5027198;28;20037;-61
2023/06/30 03:49:34;;;;;;;7.85;3.03;;;;;;;;;;5026181;28;20065;-61
2023/06/30 03:52:00;;;;;;;6.35;2.13;;;16.10;99.90;;;;;;5020553;28;20044;-60
2023/06/30 03:54:26;;;;;;;6.78;2.50;;;;;;;;;;5025852;28;20030;-61
2023/06/30 03:56:52;;;;;;;6.35;3.05;;;;;;;;;;5021730;28;20072;-61
2023/06/30 03:59:18;;;;;;;4.68;2.25;;;;;;;;;;5029012;28;20432;-61
2023/06/30 04:01:45;;;;;;;6.25;1.90;;;;;;;;;;5023881;28;20029;-60
2023/06/30 04:04:11;;;;;;;6.30;2.20;;;;;;;;;;5024021;28;20044;-61
2023/06/30 04:06:37;;;;;;;4.35;2.00;;;;;;;;;;5021043;28;20068;-61
2023/06/30 04:09:03;;;;;;;4.03;1.80;;;;;;;;;;5031514;28;20494;-61
2023/06/30 04:11:30;;;;;;;4.38;2.38;;;;;;;;;;5031978;28;20061;-61
2023/06/30 04:13:59;;;;;;;4.20;2.25;;;;;;;;;;5024536;28;20081;-61
2023/06/30 04:16:25;;;;;;;3.85;1.90;;;;;;;;;;5025628;28;20045;-61
2023/06/30 04:18:52;;;;;;;3.88;2.15;;;;;;;;;;5033585;28;20038;-61
2023/06/30 04:21:19;;;;;;;3.58;2.35;;;;;;;;;;5032607;28;20045;-61
2023/06/30 04:23:45;;;;;;;4.32;1.92;;;;;;;;;;5028073;28;20096;-60
2023/06/30 04:26:11;;;;;;;5.97;2.17;;;;;;;;;;5024527;28;20131;-61
2023/06/30 04:28:37;;;;;;;10.30;2.53;;;;;;;;;;5031674;28;20133;-61
2023/06/30 04:31:04;;;;;;;5.30;2.55;;;;;;;;;;5024904;28;20554;-61
2023/06/30 04:33:30;;;;;;;4.60;2.20;;;;;;;;;;5033884;28;20052;-61
2023/06/30 04:35:57;;;;;;;4.75;2.47;;;;;;;;;;5032915;28;20559;-61
2023/06/30 04:38:23;;;;;;;6.50;2.25;;;;;;;;;;5027233;28;20071;-61
2023/06/30 04:40:50;;;;;;;4.30;2.42;;;;;;;;;;5023953;28;20068;-61
2023/06/30 04:43:16;;;;;;;8.48;2.10;;;;;;;;;;5026681;28;20195;-61
2023/06/30 04:45:42;;;;;;;7.10;2.45;;;;;;;;;;5032161;28;20037;-61
2023/06/30 04:48:09;;;;;;;7.22;2.72;;;;;;;;;;5027865;28;20037;-61
2023/06/30 04:50:35;;;;;;;4.95;2.63;;;;;;;;;;5022694;28;20030;-61
2023/06/30 04:53:02;;;;;;;5.85;2.75;;;;;;;;;;5026871;28;20155;-61
2023/06/30 04:55:28;;;;;;;3.83;2.00;;;;;;;;;;5027771;28;20181;-61
2023/06/30 04:57:55;;;;;;;8.73;2.58;;;;;;;;;;5027021;28;20050;-61
2023/06/30 05:00:21;;;;;;;4.35;2.38;;;;;;;;;;5024452;28;20432;-61
2023/06/30 05:02:48;;;;;;;5.03;2.33;;;;;;;;;;5026698;28;20125;-61
2023/06/30 05:05:14;;;;;;;8.40;2.55;;;;;;;;;;5024454;28;20034;-61
2023/06/30 05:07:41;;;;;;;8.95;2.90;;;;;;;;;;5027302;28;20329;-60
2023/06/30 05:10:07;;;;;;;4.38;2.30;;;;;;;;;;5037569;28;20052;-61
2023/06/30 05:12:33;;;;;;;4.20;2.63;;;;;;;;;;5024211;28;20139;-61
2023/06/30 05:14:59;;;;;;;6.25;2.58;;;;;;;;;;5040886;28;20102;-61
2023/06/30 05:17:25;;;;;;;4.53;2.42;;;;;;;;;;5029109;28;20569;-61
2023/06/30 05:19:51;;;;;;;7.90;2.60;;;;;;;;;;5023758;28;20095;-61
2023/06/30 05:22:18;;;;;;;7.80;2.30;;;;;;;;;;5023916;28;20136;-61
2023/06/30 05:24:44;;;;;;;6.38;2.53;;;;;;;;;;5023042;28;20041;-61
2023/06/30 05:27:10;;;;;;;6.93;2.42;;;;;;;;;;5023562;28;20053;-61
2023/06/30 05:29:36;;;;;;;3.22;1.95;;;;;;;;;;5026064;28;20056;-61
2023/06/30 05:32:02;;;;;;;4.13;1.98;;;;;;;;;;5021842;28;20368;-61
2023/06/30 05:34:28;;;;;;;5.00;2.08;;;;;;;;;;5015950;28;20072;-61
2023/06/30 05:36:55;;;;;;;3.60;1.70;;;;;;;;;;5026644;28;20045;-61
2023/06/30 05:39:22;;;;;;;6.47;2.33;;;;;;;;;;5022689;28;20049;-61
2023/06/30 05:41:48;;;;;;;3.53;2.00;;;;;;;;;;5021930;28;20045;-61
2023/06/30 05:44:14;;;;;;;4.93;1.98;;;;;;;;;;5001625;28;20049;-61
2023/06/30 05:46:40;;;;;;;5.93;2.45;;;;;;;;;;5019778;28;20041;-61
2023/06/30 05:49:07;;;;;;;4.90;2.25;;;;;;;;;;5021552;28;20052;-60
2023/06/30 05:51:34;;;;;;;3.92;1.80;;;;;;;;;;5022328;28;20037;-61
2023/06/30 05:54:00;;;;;;;4.40;1.88;;;;;;;;;;5021452;28;20110;-61
2023/06/30 05:56:26;;;;;;;6.07;2.28;;;;;;;;;;5023189;28;20041;-61
2023/06/30 05:58:52;;;;;;;4.85;2.00;;;;;;;;;;5040934;28;20091;-60
2023/06/30 06:01:18;;;;;;;5.05;1.90;;;;;;;;;;5032980;28;20049;-61
2023/06/30 06:03:44;;;;;;;5.65;1.90;;;;;;;;;;5021915;28;20068;-61
2023/06/30 06:06:10;;;;;;;4.57;1.83;;;;;;;;;;5025914;28;20040;-61
2023/06/30 06:08:39;;;;;;;5.43;2.20;;;;;;;;;;5023354;28;20061;-61
2023/06/30 06:11:05;;;;;;;3.33;1.45;;;;;;;;;;5035241;28;20045;-61
2023/06/30 06:13:33;;;;;;;2.95;1.60;;;;;;;;;;5024582;28;20152;-61
2023/06/30 06:15:59;;;;;;;3.55;1.58;;;;;;;;;;5027184;28;20471;-61
2023/06/30 06:18:25;;;;;;;7.00;1.58;;;;;;;;;;5028009;28;20115;-61
2023/06/30 06:20:51;;;;;;;3.30;1.38;;;;;;;;;;5028280;28;20480;-61
2023/06/30 06:23:17;;;;;;;3.47;1.50;;;;;;;;;;5027199;28;20124;-61
2023/06/30 06:25:44;;;;;;;3.83;1.42;;;;;;;;;;5028725;28;20037;-61
2023/06/30 06:28:10;;;;;;;4.47;1.80;;;;;;;;;;5024332;28;20041;-61
2023/06/30 06:30:36;;;;;;;2.00;1.05;;;;;;;;;;5022108;28;20057;-61
2023/06/30 06:33:02;;;;;;;4.35;1.58;;;;;;;;;;5025160;28;20069;-61
2023/06/30 06:35:28;;;;;;;4.07;1.33;;;;;;;;;;5021160;28;20798;-61
2023/06/30 06:37:54;;;;;;;2.78;1.50;;;;;;;;;;5028575;28;20051;-61
2023/06/30 06:40:21;;;;;;;4.13;1.75;;;;;;;;;;5035441;28;20133;-61
2023/06/30 06:42:47;;;;;;;3.38;1.42;;;;;;;;;;5026583;28;20045;-61
2023/06/30 06:45:13;;;;;;;2.83;1.42;;;;;;;;;;5021084;28;20120;-61
2023/06/30 06:47:58;;;;;;;3.60;1.45;;;;;;;;;;5028027;28;20037;-61
2023/06/30 06:50:24;;;;;;;6.95;1.75;;;;;;;;;;5023529;28;20047;-61
2023/06/30 06:52:50;;;;;;;3.20;1.48;;;;;;;;;;5027521;28;20037;-61
2023/06/30 06:55:16;;;;;;;4.95;2.10;;;;;;;;;;5017150;28;20475;-61
2023/06/30 06:57:42;;;;;;;4.32;1.38;;;;;;;;;;5019514;28;20045;-61
2023/06/30 07:00:08;;;;;;;4.93;1.55;;;;;;;;;;5024228;28;20616;-60
2023/06/30 07:02:34;;;;;;;6.00;1.50;;;;;;;;;;5024868;28;20420;-61
2023/06/30 07:05:00;;;;;;;3.83;1.50;;;;;;;;;;5026348;28;20037;-61
2023/06/30 07:07:27;;;;;;;5.13;1.35;;;;;;;;;;5027234;28;20061;-63
2023/06/30 07:09:53;;;;;;;5.07;1.75;;;;;;;;;;5019660;28;20046;-61
2023/06/30 07:12:20;;;;;;;4.10;1.30;;;;;;;;;;5022549;28;20423;-61
2023/06/30 07:14:46;;;;;;;2.38;1.20;;;;;;;;;;5021587;28;20046;-61
2023/06/30 07:17:12;;;;;;;4.38;1.90;;;;;;;;;;5027211;28;20045;-61
2023/06/30 07:19:38;;;;;;;3.47;1.80;;;;;;;;;;5016795;28;20076;-61
2023/06/30 07:22:05;;;;;;;3.03;1.35;;;;;;;;;;5038553;28;20124;-61
2023/06/30 07:24:31;;;;;;;4.95;1.50;;;;;;;;;;5025520;28;20053;-61
2023/06/30 07:26:58;;;;;;;10.95;1.67;;;;;;;;;;5025091;28;20077;-61
2023/06/30 07:29:25;;;;;;;2.95;1.85;;;;;;;;;;5006794;28;20084;-60
2023/06/30 07:31:51;;;;;;;4.70;1.23;;;;;;;;;;5022209;28;20687;-61
2023/06/30 07:34:19;;;;;;;2.78;1.48;;;;;;;;;;5021372;28;20176;-61
2023/06/30 07:36:48;;;;;;;4.38;1.88;;;;;;;;;;5023832;28;20238;-61
2023/06/30 07:39:14;;;;;;;3.97;1.77;;;;;;;;;;5019429;28;20083;-61
2023/06/30 07:41:40;;;;;;;3.65;1.58;;;15.60;99.90;;;;;;5022707;28;20030;-61
2023/06/30 07:44:09;;;;;;;2.58;1.65;;;17.60;99.90;;;;;;5025394;28;20044;-61
2023/06/30 07:46:35;;;;;;;2.70;1.33;;;17.60;99.90;;;;;;5025138;28;20048;-61
2023/06/30 07:49:00;;;;;;;3.50;1.73;;;17.70;99.90;;;;;;5023037;28;20071;-61
2023/06/30 07:51:26;;;;;;;4.95;1.92;;;17.70;99.90;;;;;;5022675;28;20081;-61
2023/06/30 07:53:52;;;;;;;4.55;1.92;;;17.80;99.90;;;;;;5024119;28;20029;-61
2023/06/30 07:56:18;;;;;;;2.53;1.52;;;17.80;99.90;;;;;;5024669;28;20274;-61
2023/06/30 07:58:44;;;;;;;4.47;1.40;;;17.80;99.90;;;;;;5017593;28;20102;-61
2023/06/30 08:01:09;;;;;;;4.88;2.05;;;17.90;99.90;;;;;;5025680;28;20313;-61
2023/06/30 08:03:35;;;;;;;7.32;2.15;;;17.90;99.90;;;;;;5013426;28;20054;-61
2023/06/30 08:06:01;;;;;;;5.32;2.03;;;18.00;99.90;;;;;;5021051;28;20046;-61
2023/06/30 08:08:27;;;;;;;3.58;1.70;;;18.00;99.90;;;;;;5021138;28;20056;-62
2023/06/30 08:10:53;;;;;;;2.20;1.35;;;18.00;99.90;;;;;;5024270;28;20086;-61
2023/06/30 08:13:18;;;;;;;3.40;1.85;;;18.10;99.90;;;;;;5024176;28;20037;-61
2023/06/30 08:15:44;;;;;;;4.15;1.77;;;18.10;99.90;;;;;;5038163;28;20483;-61
2023/06/30 08:18:11;;;;;;;4.50;1.58;;;18.20;99.90;;;;;;5022155;28;20068;-61
2023/06/30 08:20:38;;;;;;;4.18;1.75;;;18.20;99.90;;;;;;5022182;28;20161;-61
2023/06/30 08:23:04;;;;;;;4.60;1.35;;;18.30;99.90;;;;;;5023849;28;20117;-61
2023/06/30 08:25:30;;;;;;;5.50;1.75;;;;;;;;;;5024640;28;20048;-61
2023/06/30 08:27:56;;;;;;;3.90;1.92;;;;;;;;;;5025507;28;20076;-61
2023/06/30 08:30:22;;;;;;;3.33;1.60;;;;;;;;;;5021889;28;20455;-61
2023/06/30 08:32:49;;;;;;;3.13;1.73;;;;;;;;;;5025809;28;20144;-61
2023/06/30 08:35:15;;;;;;;3.25;1.85;;;;;;;;;;5014207;28;20034;-61
2023/06/30 08:37:42;;;;;;;6.43;1.77;;;;;;;;;;5023235;28;20041;-61
2023/06/30 08:40:09;;;;;;;6.45;2.58;;;;;;;;;;5013938;28;20501;-61
2023/06/30 08:42:36;;;;;;;8.45;2.20;;;;;;;;;;5022616;28;20045;-60
2023/06/30 08:45:03;;;;;;;3.85;1.73;;;;;;;;;;5024020;28;20084;-60
2023/06/30 08:47:31;;;;;;;6.88;1.65;;;;;;;;;;5027690;28;20121;-60
2023/06/30 08:49:58;;;;;;;4.07;2.00;;;;;;;;;;5017687;28;20124;-60
2023/06/30 08:52:25;;;;;;;4.97;1.77;;;;;;;;;;5029213;28;20194;-60
2023/06/30 08:54:51;;;;;;;3.00;1.80;;;;;;;;;;5026271;28;20094;-60
2023/06/30 08:57:17;;;;;;;5.28;1.85;;;;;;;;;;5024582;28;20055;-60
2023/06/30 08:59:46;;;;;;;6.40;2.03;;;;;;;;;;5026333;28;20056;-60
2023/06/30 09:02:13;;;;;;;3.65;2.08;;;;;;;;;;5024797;28;20046;-60
2023/06/30 09:04:40;;;;;;;3.90;2.40;;;;;;;;;;5026759;28;20037;-60
2023/06/30 09:07:11;;;;;;;3.42;1.30;;;;;;;;;;5030659;28;20061;-60
2023/06/30 09:09:47;;;;;;;3.80;1.80;;;;;;;;;;5019201;28;20118;-60
2023/06/30 09:12:15;;;;;;;5.13;2.00;;;;;;;;;;5023407;28;20044;-60
2023/06/30 09:14:41;;;;;;;3.40;1.75;;;;;;;;;;5027243;28;20060;-60
2023/06/30 09:17:07;;;;;;;3.95;1.92;;;;;;;;;;5028654;28;20045;-60
2023/06/30 09:19:35;;;;;;;4.28;1.63;;;;;;;;;;5026364;28;20315;-60
2023/06/30 09:22:02;;;;;;;6.45;2.25;;;;;;;;;;5026473;28;20045;-60
2023/06/30 09:24:28;;;;;;;3.80;1.88;;;;;;;;;;5024223;28;20187;-60
2023/06/30 09:26:54;;;;;;;3.88;2.10;;;;;;;;;;5027569;28;20048;-60
2023/06/30 09:29:24;;;;;;;7.18;2.33;;;;;;;;;;5025735;28;20479;-60
2023/06/30 09:31:51;;;;;;;7.32;1.90;;;;;;;;;;5022477;28;20049;-60
2023/06/30 09:34:19;;;;;;;3.63;1.67;;;;;;;;;;5027255;28;20053;-60
2023/06/30 09:36:52;;;;;;;8.15;2.20;;;;;;;;;;5018806;28;20874;-60
2023/06/30 09:39:19;;;;;;;8.63;1.98;;;;;;;;;;5023463;28;20523;-60
2023/06/30 09:41:46;;;;;;;5.07;2.17;;;;;;;;;;5024430;28;20140;-60
2023/06/30 09:44:12;;;;;;;5.85;2.00;;;;;;;;;;5021792;28;20107;-60
2023/06/30 09:46:46;;;;;;;4.90;2.17;;;;;;;;;;5017628;28;20056;-59
2023/06/30 09:49:32;;;;;;;5.45;1.77;;;;;;;;;;5018466;28;20041;-59
2023/06/30 09:52:01;;;;;;;5.47;1.90;;;;;;;;;;5005389;28;20042;-60
2023/06/30 09:54:27;;;;;;;4.43;1.95;;;;;;;;;;5019866;28;20068;-60
2023/06/30 09:56:57;;;;;;;7.53;1.85;;;;;;;;;;4992699;28;20404;-60
2023/06/30 09:59:23;;;;;;;3.35;1.52;;;;;;;;;;5030368;28;20053;-60
2023/06/30 10:01:52;;;;;;;6.13;1.80;;;;;;;;;;5019177;28;20550;-60
2023/06/30 10:04:18;;;;;;;8.35;2.40;;;;;;;;;;5023310;28;20433;-60
2023/06/30 10:06:46;;;;;;;5.22;2.25;;;;;;;;;;5021527;28;20055;-60
2023/06/30 10:09:13;;;;;;;6.75;1.67;;;;;;;;;;5018440;28;20046;-60
2023/06/30 10:11:40;;;;;;;2.90;1.55;;;;;;;;;;5024218;28;20041;-60
2023/06/30 10:14:06;;;;;;;2.75;1.50;;;;;;;;;;5026735;28;20208;-59
2023/06/30 10:16:33;;;;;;;5.90;1.85;;;;;;;;;;5025110;28;20480;-60
2023/06/30 10:19:02;;;;;;;3.85;1.63;;;;;;;;;;5027131;28;20126;-60
2023/06/30 10:21:28;;;;;;;3.45;1.88;;;;;;;;;;5026336;28;20375;-61
2023/06/30 10:23:55;;;;;;;5.22;2.35;;;;;;;;;;5027361;28;20637;-60
2023/06/30 10:26:22;;;;;;;4.72;1.70;;;;;;;;;;5018764;28;20033;-60
2023/06/30 10:28:48;;;;;;;5.03;1.98;;;;;;;;;;5018377;28;20079;-60
2023/06/30 10:31:15;;;;;;;2.67;1.40;;;;;;;;;;5020199;28;20069;-60
2023/06/30 10:33:41;;;;;;;3.80;1.80;;;;;;;;;;5020942;28;20060;-62
2023/06/30 10:36:08;;;;;;;5.68;1.90;;;;;;;;;;5016561;28;20041;-60
2023/06/30 10:38:35;;;;;;;3.40;1.55;;;;;;;;;;5021198;28;20083;-60
2023/06/30 10:41:16;;;;;;;11.80;1.88;;;;;;;;;;5014314;28;20041;-60
2023/06/30 10:44:01;;;;;;;2.85;1.48;;;;;;;;;;5021206;28;20091;-60
2023/06/30 10:46:46;;;;;;;3.72;1.98;;;;;;;;;;5024687;28;20527;-61
2023/06/30 10:49:18;;;;;;;2.30;1.23;;;;;;;;;;5037326;28;20041;-60
2023/06/30 10:51:46;;;;;;;7.38;2.13;;;;;;;;;;5018548;28;20566;-60
2023/06/30 10:54:18;;;;;;;2.70;1.70;;;;;;;;;;5015728;28;20517;-60
2023/06/30 10:56:44;;;;;;;3.53;1.70;;;;;;;;;;5014878;28;21152;-60
2023/06/30 10:59:15;;;;;;;3.80;1.40;;;;;;;;;;5021622;28;20580;-60
2023/06/30 11:02:02;;;;;;;7.93;1.60;;;;;;;;;;5015882;28;20037;-60
2023/06/30 11:04:36;;;;;;;3.47;1.35;;;;;;;;;;5018568;28;20479;-60
2023/06/30 11:07:03;;;;;;;2.47;1.58;;;;;;;;;;5012766;28;20054;-60
2023/06/30 11:09:49;;;;;;;3.45;1.38;;;;;;;;;;5019232;28;20101;-61
2023/06/30 11:12:15;;;;;;;2.95;1.50;;;;;;;;;;5020573;28;20181;-60
2023/06/30 11:14:58;;;;;;;4.03;1.95;;;;;;;;;;5021159;28;20128;-60
2023/06/30 11:17:28;;;;;;;5.28;1.90;;;;;;;;;;5017471;28;20155;-60
2023/06/30 11:19:59;;;;;;;2.95;1.85;;;;;;;;;;5020995;28;20436;-60
2023/06/30 11:22:26;;;;;;;2.70;2.00;;;;;;;;;;5021993;28;20394;-60
2023/06/30 11:24:52;;;;;;;3.88;2.10;;;;;;;;;;5026202;28;20040;-60
2023/06/30 11:27:19;;;;;;;3.90;1.83;;;;;;;;;;5018934;28;20144;-60
2023/06/30 11:29:45;;;;;;;5.55;1.85;;;;;;;;;;5019196;28;20053;-60
2023/06/30 11:32:13;;;;;;;6.03;1.98;;;18.40;99.90;;;;;;5015389;28;20558;-60
2023/06/30 11:34:39;;;;;;;5.13;1.95;;;21.50;90.00;;;;;;5020352;28;20091;-60
2023/06/30 11:37:05;;;;;;;2.92;1.67;;;21.40;89.80;;;;;;5019566;28;20037;-60
2023/06/30 11:39:31;;;;;;;4.13;1.42;;;21.40;89.20;;;;;;5014682;28;20160;-60
2023/06/30 11:41:58;;;;;;;4.72;1.40;;;21.40;89.00;;;;;;5017808;28;20128;-60
2023/06/30 11:44:24;;;;;;;4.78;1.75;;;21.40;88.80;;;;;;5017957;28;20052;-60
2023/06/30 11:46:51;;;;;;;2.65;1.67;;;21.40;88.40;;;;;;5020857;28;20029;-60
2023/06/30 11:49:17;;;;;;;4.32;1.80;;;21.40;88.50;;;;;;5022830;28;20051;-60
2023/06/30 11:51:43;;;;;;;4.63;2.47;;;21.50;88.50;;;;;;5018591;28;20359;-60
2023/06/30 11:54:08;;;;;;;4.25;2.33;;;21.50;88.70;;;;;;5022244;28;20034;-60
2023/06/30 11:56:38;;;;;;;5.45;2.05;;;21.60;88.90;;;;;;5016056;28;20158;-60
2023/06/30 11:59:05;;;;;;;6.15;1.98;;;21.60;88.60;;;;;;5019991;28;20806;-60
2023/06/30 12:01:31;;;;;;;4.00;1.90;;;21.60;88.80;;;;;;5018441;28;20711;-60
2023/06/30 12:04:07;;;;;;;2.72;1.65;;;21.70;88.60;;;;;;5018622;28;20101;-61
2023/06/30 12:06:36;;;;;;;2.42;1.65;;;21.80;88.00;;;;;;5021350;28;20041;-60
2023/06/30 12:09:02;;;;;;;4.05;1.70;;;21.80;88.00;;;;;;5022216;28;20498;-60
2023/06/30 12:11:30;;;;;;;3.58;1.80;;;21.90;87.50;;;;;;5023221;28;20049;-61
2023/06/30 12:13:55;;;;;;;5.28;2.53;;;22.00;86.90;;;;;;5026598;28;20487;-60
2023/06/30 12:16:26;;;;;;;4.97;1.77;;;22.10;86.80;;;;;;5021167;28;20045;-60
2023/06/30 12:18:53;;;;;;;4.18;1.98;;;22.10;86.50;;;;;;5021628;28;20651;-60
2023/06/30 12:21:19;;;;;;;3.03;1.80;;;22.20;86.00;;;;;;5023380;28;20052;-61
2023/06/30 12:23:45;;;;;;;3.95;1.75;;;22.20;85.20;;;;;;5029780;28;20046;-61
2023/06/30 12:26:12;;;;;;;4.47;1.98;;;22.20;84.70;;;;;;5037576;28;20041;-61
2023/06/30 12:28:39;;;;;;;5.80;2.22;;;22.20;84.20;;;;;;5027242;28;20156;-60
2023/06/30 12:31:04;;;;;;;4.78;1.63;;;22.20;84.20;;;;;;5017360;28;20037;-60
2023/06/30 12:33:32;;;;;;;6.88;2.20;;;22.30;84.50;;;;;;5027574;28;20525;-61
2023/06/30 12:35:57;;;;;;;3.38;1.60;;;22.30;84.10;;;;;;5023704;28;20037;-61
2023/06/30 12:38:23;;;;;;;8.40;2.25;;;22.30;83.80;;;;;;5018433;28;20136;-61
2023/06/30 12:40:50;;;;;;;7.10;2.53;;;22.30;83.50;;;;;;5022389;28;20045;-61
2023/06/30 12:43:17;;;;;;;8.75;2.90;;;22.30;83.80;;;;;;5023120;28;20577;-61
2023/06/30 12:45:43;;;;;;;5.03;2.05;;;22.40;83.60;;;;;;5023279;28;20487;-61
2023/06/30 12:48:09;;;;;;;7.35;2.60;;;22.30;83.20;;;;;;5021642;28;20164;-61
2023/06/30 12:50:35;;;;;;;6.60;2.22;;;22.30;83.20;;;;;;5024102;28;20052;-61
2023/06/30 12:53:01;;;;;;;5.18;2.47;;;22.30;83.00;;;;;;5023657;28;20045;-61
2023/06/30 12:55:28;;;;;;;6.50;2.15;;;22.30;83.40;;;;;;5025259;28;20037;-61
2023/06/30 12:57:54;;;;;;;4.90;2.03;;;22.30;83.70;;;;;;5022114;28;20057;-61
2023/06/30 13:00:20;;;;;;;3.33;2.05;;;22.40;84.30;;;;;;5021764;28;20060;-61
2023/06/30 13:02:46;;;;;;;3.38;1.90;;;22.40;84.30;;;;;;5025418;28;20049;-61
2023/06/30 13:05:12;;;;;;;7.35;2.53;;;22.40;84.00;;;;;;5019836;28;20446;-60
2023/06/30 13:07:39;;;;;;;4.15;1.80;;;22.50;84.00;;;;;;5025541;28;20458;-61
2023/06/30 13:10:06;;;;;;;5.38;2.85;;;22.50;83.80;;;;;;5021215;28;20060;-61
2023/06/30 13:12:32;;;;;;;5.07;2.13;;;22.50;83.20;;;;;;5023510;28;20215;-62
2023/06/30 13:14:58;;;;;;;6.38;2.63;;;22.50;83.20;;;;;;5031408;28;20508;-62
2023/06/30 13:17:24;;;;;;;4.75;2.60;;;22.50;83.60;;;;;;5021826;28;20049;-62
2023/06/30 13:19:50;;;;;;;4.22;1.98;;;22.50;83.90;;;;;;5022954;28;20038;-62
2023/06/30 13:22:16;;;;;;;4.38;1.90;;;22.60;83.90;;;;;;5025423;28;20080;-62
2023/06/30 13:24:47;;;;;;;16.65;2.42;;;22.70;84.10;;;;;;5020917;28;20754;-62
2023/06/30 13:27:13;;;;;;;2.72;2.05;;;22.70;83.90;;;;;;5021888;28;20045;-63
2023/06/30 13:29:47;;;;;;;6.07;1.92;;;22.70;84.50;;;;;;5018706;28;20081;-63
2023/06/30 13:32:13;;;;;;;5.10;1.65;;;22.80;84.70;;;;;;5017247;28;20041;-62
2023/06/30 13:34:39;;;;;;;13.25;2.25;;;22.80;84.80;;;;;;5024609;28;20099;-63
2023/06/30 13:37:05;;;;;;;4.38;2.50;;;22.80;84.80;;;;;;5025754;28;20037;-63
2023/06/30 13:39:31;;;;;;;6.22;2.00;;;22.80;84.60;;;;;;5038062;28;20485;-63
2023/06/30 13:41:56;;;;;;;2.83;1.77;;;22.80;84.10;;;;;;5026103;28;20037;-63
2023/06/30 13:44:22;;;;;;;2.72;1.58;;;22.80;84.40;;;;;;5023954;28;20046;-63
2023/06/30 13:46:48;;;;;;;6.72;2.35;;;22.80;84.90;;;;;;5021000;28;20803;-62
2023/06/30 13:49:14;;;;;;;4.50;1.95;;;22.80;84.70;;;;;;5037868;28;20129;-62
2023/06/30 13:51:41;;;;;;;2.90;1.60;;;22.80;84.60;;;;;;5022781;28;20065;-62
2023/06/30 13:54:07;;;;;;;4.32;1.98;;;22.80;84.70;;;;;;5025298;28;20037;-63
2023/06/30 13:56:33;;;;;;;4.13;2.05;;;22.80;84.50;;;;;;5023340;28;20485;-61
2023/06/30 13:58:59;;;;;;;12.35;1.92;;;22.80;84.30;;;;;;5035550;28;20069;-62
2023/06/30 14:01:25;;;;;;;5.47;1.83;;;22.80;84.30;;;;;;5026404;28;20791;-62
2023/06/30 14:03:51;;;;;;;4.55;2.65;;;22.80;84.10;;;;;;5026734;28;20450;-61
2023/06/30 14:06:18;;;;;;;6.53;2.50;;;22.80;84.10;;;;;;5024868;28;20056;-61